createdAt,value
2018-12-30T00:00:39.653Z,2.87
2018-12-30T00:03:10.440Z,2.60
2018-12-30T00:05:40.932Z,3.30
2018-12-30T00:08:14.425Z,3.60
2018-12-30T00:10:45.059Z,2.92
2018-12-30T00:13:15.283Z,3.50
2018-12-30T00:15:45.700Z,3.35
2018-12-30T00:18:16.395Z,4.40
2018-12-30T00:20:48.758Z,4.53
2018-12-30T00:23:19.699Z,4.95
2018-12-30T00:25:50.012Z,5.30
2018-12-30T00:28:21.496Z,5.12
2018-12-30T00:30:51.717Z,4.80
2018-12-30T00:33:22.017Z,4.65
2018-12-30T00:35:52.541Z,3.35
2018-12-30T00:38:22.951Z,2.33
2018-12-30T00:40:53.278Z,1.30
2018-12-30T00:43:24.614Z,1.67
2018-12-30T00:45:54.887Z,1.40
2018-12-30T00:48:25.358Z,0.60
2018-12-30T00:50:55.621Z,0.57
2018-12-30T00:53:26.031Z,0.68
2018-12-30T00:55:56.356Z,0.70
2018-12-30T00:58:28.999Z,0.80
2018-12-30T01:00:59.242Z,0.80
2018-12-30T01:03:29.623Z,1.10
2018-12-30T01:06:00.279Z,1.00
2018-12-30T01:08:30.588Z,0.80
2018-12-30T01:11:01.118Z,1.10
2018-12-30T01:13:35.892Z,1.00
2018-12-30T01:16:06.556Z,0.90
2018-12-30T01:18:36.882Z,1.45
2018-12-30T01:21:07.503Z,1.00
2018-12-30T01:23:38.142Z,0.85
2018-12-30T01:26:08.469Z,0.93
2018-12-30T01:28:39.065Z,0.72
2018-12-30T01:31:09.286Z,0.98
2018-12-30T01:33:39.998Z,1.20
2018-12-30T01:36:10.713Z,1.82
2018-12-30T01:38:41.761Z,1.42
2018-12-30T01:41:12.428Z,1.20
2018-12-30T01:43:43.177Z,1.35
2018-12-30T01:46:13.848Z,1.12
2018-12-30T01:48:44.211Z,1.62
2018-12-30T01:51:15.704Z,1.25
2018-12-30T01:53:46.100Z,1.00
2018-12-30T01:56:16.487Z,1.22
2018-12-30T01:58:47.541Z,0.90
2018-12-30T02:01:17.974Z,1.42
2018-12-30T02:03:48.280Z,1.00
2018-12-30T02:06:20.760Z,0.90
2018-12-30T02:08:52.091Z,0.80
2018-12-30T02:11:22.502Z,0.82
2018-12-30T02:13:52.822Z,1.05
2018-12-30T02:16:23.269Z,0.80
2018-12-30T02:18:53.541Z,1.07
2018-12-30T02:21:24.583Z,1.05
2018-12-30T02:23:55.009Z,1.12
2018-12-30T02:26:26.544Z,0.80
2018-12-30T02:28:56.893Z,0.65
2018-12-30T02:31:28.752Z,1.00
2018-12-30T02:33:58.977Z,1.10
2018-12-30T02:36:29.635Z,1.30
2018-12-30T02:39:00.241Z,1.27
2018-12-30T02:41:31.388Z,1.05
2018-12-30T02:44:02.175Z,1.00
2018-12-30T02:46:32.369Z,0.70
2018-12-30T02:49:05.500Z,1.02
2018-12-30T02:51:35.948Z,1.00
2018-12-30T02:54:06.669Z,1.27
2018-12-30T02:56:36.934Z,1.00
2018-12-30T02:59:07.275Z,0.93
2018-12-30T03:01:37.841Z,0.70
2018-12-30T03:04:08.076Z,0.93
2018-12-30T03:06:38.411Z,1.00
2018-12-30T03:09:08.866Z,0.80
2018-12-30T03:11:39.364Z,1.07
2018-12-30T03:14:09.646Z,0.80
2018-12-30T03:16:40.096Z,0.80
2018-12-30T03:19:10.708Z,1.12
2018-12-30T03:21:40.949Z,2.15
2018-12-30T03:24:11.493Z,1.80
2018-12-30T03:26:42.156Z,1.50
2018-12-30T03:29:12.342Z,2.22
2018-12-30T03:31:42.716Z,1.65
2018-12-30T03:34:12.937Z,1.57
2018-12-30T03:36:43.412Z,1.02
2018-12-30T03:39:13.793Z,2.70
2018-12-30T03:41:44.146Z,1.32
2018-12-30T03:44:14.361Z,1.80
2018-12-30T03:46:44.815Z,2.22
2018-12-30T03:49:15.053Z,1.55
2018-12-30T03:51:49.586Z,2.20
2018-12-30T03:54:20.027Z,2.00
2018-12-30T03:56:50.294Z,2.17
2018-12-30T03:59:20.589Z,2.35
2018-12-30T04:01:50.818Z,1.90
2018-12-30T04:04:21.050Z,1.90
2018-12-30T04:06:51.679Z,2.27
2018-12-30T04:09:22.082Z,2.00
2018-12-30T04:11:52.439Z,1.90
2018-12-30T04:14:22.850Z,2.27
2018-12-30T04:16:53.081Z,2.35
2018-12-30T04:19:23.587Z,3.27
2018-12-30T04:21:53.771Z,1.80
2018-12-30T04:24:24.031Z,2.40
2018-12-30T04:26:54.378Z,3.35
2018-12-30T04:29:24.702Z,3.05
2018-12-30T04:31:54.937Z,3.10
2018-12-30T04:34:25.258Z,2.35
2018-12-30T04:36:55.552Z,2.50
2018-12-30T04:39:25.843Z,2.80
2018-12-30T04:41:56.242Z,2.67
2018-12-30T04:44:26.487Z,2.37
2018-12-30T04:46:57.184Z,4.10
2018-12-30T04:49:27.601Z,2.77
2018-12-30T04:51:57.823Z,2.42
2018-12-30T04:54:29.273Z,2.70
2018-12-30T04:56:59.648Z,2.80
2018-12-30T04:59:30.057Z,2.90
2018-12-30T05:02:00.655Z,2.67
2018-12-30T05:04:31.050Z,2.22
2018-12-30T05:07:01.486Z,1.95
2018-12-30T05:09:31.955Z,2.45
2018-12-30T05:12:02.361Z,2.37
2018-12-30T05:14:33.037Z,3.85
2018-12-30T05:17:03.333Z,3.15
2018-12-30T05:19:33.818Z,2.30
2018-12-30T05:22:05.109Z,2.00
2018-12-30T05:24:35.509Z,2.77
2018-12-30T05:27:07.367Z,4.08
2018-12-30T05:29:37.665Z,3.37
2018-12-30T05:32:08.144Z,2.83
2018-12-30T05:34:41.226Z,3.65
2018-12-30T05:37:11.459Z,1.92
2018-12-30T05:39:41.778Z,1.75
2018-12-30T05:42:12.053Z,1.98
2018-12-30T05:44:42.397Z,2.70
2018-12-30T05:47:15.099Z,2.58
2018-12-30T05:49:45.746Z,1.87
2018-12-30T05:52:16.553Z,2.58
2018-12-30T05:54:47.005Z,2.47
2018-12-30T05:57:17.220Z,1.72
2018-12-30T05:59:47.677Z,1.80
2018-12-30T06:02:18.387Z,2.37
2018-12-30T06:04:48.594Z,1.72
2018-12-30T06:07:18.804Z,1.55
2018-12-30T06:09:49.056Z,1.50
2018-12-30T06:12:19.270Z,2.67
2018-12-30T06:14:49.471Z,1.85
2018-12-30T06:17:20.849Z,1.60
2018-12-30T06:19:51.102Z,2.00
2018-12-30T06:22:21.656Z,1.72
2018-12-30T06:24:52.666Z,1.30
2018-12-30T06:27:22.892Z,2.47
2018-12-30T06:29:53.142Z,1.60
2018-12-30T06:32:23.637Z,2.05
2018-12-30T06:34:53.921Z,1.40
2018-12-30T06:37:24.402Z,1.50
2018-12-30T06:39:56.138Z,1.02
2018-12-30T06:42:26.584Z,1.42
2018-12-30T06:44:57.237Z,1.22
2018-12-30T06:47:27.991Z,1.85
2018-12-30T06:49:58.283Z,1.57
2018-12-30T06:52:28.827Z,2.25
2018-12-30T06:54:59.030Z,1.10
2018-12-30T06:57:29.298Z,1.25
2018-12-30T06:59:59.523Z,0.90
2018-12-30T07:02:29.861Z,1.72
2018-12-30T07:05:00.239Z,1.82
2018-12-30T07:07:30.595Z,1.47
2018-12-30T07:10:01.072Z,1.50
2018-12-30T07:12:31.769Z,1.85
2018-12-30T07:15:01.980Z,1.72
2018-12-30T07:17:32.543Z,1.37
2018-12-30T07:20:02.929Z,1.80
2018-12-30T07:22:33.179Z,1.85
2018-12-30T07:25:03.867Z,1.70
2018-12-30T07:27:34.134Z,2.10
2018-12-30T07:30:04.618Z,2.20
2018-12-30T07:32:35.048Z,1.42
2018-12-30T07:35:07.843Z,1.85
2018-12-30T07:37:37.244Z,2.87
2018-12-30T07:40:07.571Z,1.75
2018-12-30T07:42:38.204Z,2.37
2018-12-30T07:45:08.565Z,2.08
2018-12-30T07:47:38.822Z,1.65
2018-12-30T07:50:09.268Z,2.45
2018-12-30T07:52:39.496Z,1.75
2018-12-30T07:55:09.867Z,2.58
2018-12-30T07:57:40.188Z,3.10
2018-12-30T08:00:10.842Z,1.70
2018-12-30T08:02:41.064Z,1.50
2018-12-30T08:05:11.390Z,2.22
2018-12-30T08:07:41.594Z,1.60
2018-12-30T08:10:12.079Z,1.67
2018-12-30T08:12:42.356Z,2.52
2018-12-30T08:15:12.597Z,2.40
2018-12-30T08:17:42.978Z,2.25
2018-12-30T08:20:20.771Z,3.02
2018-12-30T08:22:51.336Z,2.20
2018-12-30T08:25:21.723Z,2.45
2018-12-30T08:27:51.986Z,2.77
2018-12-30T08:30:22.876Z,2.25
2018-12-30T08:32:53.476Z,2.87
2018-12-30T08:35:24.089Z,2.52
2018-12-30T08:37:54.465Z,2.65
2018-12-30T08:40:24.690Z,1.55
2018-12-30T08:42:55.114Z,2.87
2018-12-30T08:45:25.687Z,2.77
2018-12-30T08:47:57.243Z,2.50
2018-12-30T08:50:27.767Z,2.58
2018-12-30T08:52:58.435Z,2.47
2018-12-30T08:55:28.988Z,2.72
2018-12-30T08:58:03.814Z,3.92
2018-12-30T09:00:34.451Z,3.33
2018-12-30T09:03:04.830Z,3.67
2018-12-30T09:05:35.032Z,2.20
2018-12-30T09:08:05.582Z,2.13
2018-12-30T09:10:36.114Z,2.40
2018-12-30T09:13:08.067Z,3.10
2018-12-30T09:15:38.487Z,2.43
2018-12-30T09:18:09.102Z,2.97
2018-12-30T09:20:39.349Z,2.60
2018-12-30T09:23:10.215Z,3.03
2018-12-30T09:25:40.511Z,3.17
2018-12-30T09:28:10.837Z,2.83
2018-12-30T09:30:41.448Z,3.37
2018-12-30T09:33:11.692Z,3.10
2018-12-30T09:35:42.039Z,2.52
2018-12-30T09:38:12.712Z,2.65
2018-12-30T09:40:44.081Z,2.95
2018-12-30T09:43:14.330Z,2.90
2018-12-30T09:45:45.659Z,3.05
2018-12-30T09:48:16.039Z,3.33
2018-12-30T09:50:46.385Z,2.58
2018-12-30T09:53:16.829Z,3.87
2018-12-30T09:55:50.272Z,2.95
2018-12-30T09:58:20.597Z,4.47
2018-12-30T10:00:51.003Z,3.15
2018-12-30T10:03:21.429Z,3.05
2018-12-30T10:05:51.680Z,3.72
2018-12-30T10:08:22.050Z,2.37
2018-12-30T10:10:53.898Z,3.80
2018-12-30T10:13:24.271Z,2.98
2018-12-30T10:15:54.539Z,4.30
2018-12-30T10:18:25.135Z,2.55
2018-12-30T10:20:55.603Z,3.37
2018-12-30T10:23:26.296Z,2.45
2018-12-30T10:25:56.722Z,3.20
2018-12-30T10:28:27.202Z,3.80
2018-12-30T10:30:57.737Z,2.67
2018-12-30T10:33:28.276Z,2.42
2018-12-30T10:35:58.578Z,3.77
2018-12-30T10:38:28.997Z,4.42
2018-12-30T10:40:59.375Z,2.67
2018-12-30T10:43:31.987Z,2.65
2018-12-30T10:46:03.661Z,3.05
2018-12-30T10:48:34.245Z,3.45
2018-12-30T10:51:04.750Z,3.05
2018-12-30T10:53:35.125Z,4.47
2018-12-30T10:56:05.475Z,2.83
2018-12-30T10:58:35.798Z,2.83
2018-12-30T11:01:06.502Z,2.57
2018-12-30T11:03:37.219Z,3.90
2018-12-30T11:06:11.022Z,2.53
2018-12-30T11:08:41.319Z,3.30
2018-12-30T11:11:12.235Z,3.15
2018-12-30T11:13:43.041Z,3.50
2018-12-30T11:16:14.390Z,3.05
2018-12-30T11:18:44.769Z,2.25
2018-12-30T11:21:15.123Z,2.20
2018-12-30T11:23:45.442Z,3.20
2018-12-30T11:26:15.830Z,3.47
2018-12-30T11:28:46.053Z,2.47
2018-12-30T11:31:16.640Z,3.20
2018-12-30T11:33:46.930Z,2.98
2018-12-30T11:36:17.704Z,2.17
2018-12-30T11:38:49.317Z,2.30
2018-12-30T11:41:19.582Z,2.87
2018-12-30T11:43:50.233Z,4.20
2018-12-30T11:46:22.576Z,2.72
2018-12-30T11:48:52.906Z,3.90
2018-12-30T11:51:23.224Z,2.70
2018-12-30T11:53:53.760Z,2.10
2018-12-30T11:56:25.136Z,3.22
2018-12-30T11:58:55.747Z,2.50
2018-12-30T12:01:26.577Z,2.47
2018-12-30T12:03:57.053Z,2.92
2018-12-30T12:06:27.452Z,2.85
2018-12-30T12:08:57.913Z,2.30
2018-12-30T12:11:29.776Z,2.70
2018-12-30T12:14:00.126Z,2.47
2018-12-30T12:16:30.876Z,1.92
2018-12-30T12:19:01.224Z,2.77
2018-12-30T12:21:33.600Z,2.00
2018-12-30T12:24:04.096Z,2.12
2018-12-30T12:26:34.489Z,4.12
2018-12-30T12:29:11.737Z,4.33
2018-12-30T12:31:42.012Z,3.85
2018-12-30T12:34:12.355Z,2.08
2018-12-30T12:36:42.884Z,3.70
2018-12-30T12:39:13.374Z,2.65
2018-12-30T12:41:43.662Z,3.70
2018-12-30T12:44:14.214Z,3.00
2018-12-30T12:46:44.727Z,3.00
2018-12-30T12:49:14.994Z,2.20
2018-12-30T12:51:45.549Z,2.98
2018-12-30T12:54:15.861Z,2.20
2018-12-30T12:56:46.248Z,2.27
2018-12-30T12:59:16.924Z,2.17
2018-12-30T13:01:47.763Z,2.15
2018-12-30T13:04:18.066Z,3.30
2018-12-30T13:06:49.527Z,3.52
2018-12-30T13:09:19.848Z,3.65
2018-12-30T13:11:50.161Z,2.50
2018-12-30T13:14:20.816Z,1.95
2018-12-30T13:16:51.783Z,2.00
2018-12-30T13:19:22.121Z,2.02
2018-12-30T13:21:52.687Z,2.15
2018-12-30T13:24:24.203Z,1.95
2018-12-30T13:26:54.916Z,1.75
2018-12-30T13:29:25.322Z,2.00
2018-12-30T13:31:55.999Z,2.25
2018-12-30T13:34:26.615Z,2.55
2018-12-30T13:36:57.479Z,2.52
2018-12-30T13:39:27.952Z,2.42
2018-12-30T13:41:58.319Z,2.70
2018-12-30T13:44:28.687Z,2.50
2018-12-30T13:46:59.173Z,1.62
2018-12-30T13:49:29.918Z,2.55
2018-12-30T13:52:00.342Z,2.40
2018-12-30T13:54:32.406Z,1.92
2018-12-30T13:57:02.814Z,2.25
2018-12-30T13:59:37.320Z,2.40
2018-12-30T14:02:07.930Z,2.58
2018-12-30T14:04:38.228Z,2.58
2018-12-30T14:07:08.703Z,2.70
2018-12-30T14:09:39.206Z,2.02
2018-12-30T14:12:09.711Z,2.33
2018-12-30T14:14:40.391Z,1.95
2018-12-30T14:17:11.657Z,2.55
2018-12-30T14:19:41.962Z,3.17
2018-12-30T14:22:12.683Z,2.50
2018-12-30T14:24:43.185Z,1.92
2018-12-30T14:27:13.686Z,2.25
2018-12-30T14:29:44.195Z,2.37
2018-12-30T14:32:14.487Z,3.05
2018-12-30T14:34:50.813Z,1.90
2018-12-30T14:37:21.383Z,2.70
2018-12-30T14:39:51.866Z,2.00
2018-12-30T14:42:24.338Z,2.60
2018-12-30T14:44:54.727Z,2.37
2018-12-30T14:47:25.015Z,2.58
2018-12-30T14:49:55.632Z,3.00
2018-12-30T14:52:26.094Z,2.12
2018-12-30T14:55:03.518Z,2.17
2018-12-30T14:57:29.265Z,2.35
2018-12-30T15:00:00.832Z,2.47
2018-12-30T15:02:31.555Z,2.33
2018-12-30T15:05:02.024Z,3.02
2018-12-30T15:07:32.392Z,2.52
2018-12-30T15:10:02.961Z,4.83
2018-12-30T15:12:34.796Z,2.62
2018-12-30T15:15:05.513Z,2.42
2018-12-30T15:17:36.313Z,2.45
2018-12-30T15:20:07.046Z,3.33
2018-12-30T15:22:37.422Z,2.37
2018-12-30T15:25:12.025Z,2.40
2018-12-30T15:27:40.469Z,2.70
2018-12-30T15:30:11.010Z,2.30
2018-12-30T15:32:41.699Z,3.12
2018-12-30T15:35:12.329Z,3.90
2018-12-30T15:37:43.066Z,3.22
2018-12-30T15:40:13.662Z,2.30
2018-12-30T15:42:44.105Z,2.87
2018-12-30T15:45:14.548Z,2.83
2018-12-30T15:47:45.168Z,2.80
2018-12-30T15:50:16.529Z,2.83
2018-12-30T15:52:50.201Z,3.12
2018-12-30T15:55:20.444Z,2.77
2018-12-30T15:57:51.074Z,2.85
2018-12-30T16:00:21.458Z,2.22
2018-12-30T16:02:52.067Z,3.10
2018-12-30T16:05:22.449Z,4.45
2018-12-30T16:07:52.747Z,2.22
2018-12-30T16:10:22.974Z,3.62
2018-12-30T16:12:53.362Z,3.45
2018-12-30T16:15:23.661Z,2.27
2018-12-30T16:17:53.946Z,2.12
2018-12-30T16:20:24.370Z,2.65
2018-12-30T16:22:54.631Z,2.83
2018-12-30T16:25:27.406Z,2.60
2018-12-30T16:27:57.608Z,2.75
2018-12-30T16:30:27.942Z,2.37
2018-12-30T16:32:58.271Z,4.35
2018-12-30T16:35:28.718Z,2.80
2018-12-30T16:38:00.567Z,3.80
2018-12-30T16:40:33.589Z,2.65
2018-12-30T16:43:04.562Z,2.80
2018-12-30T16:45:35.427Z,2.72
2018-12-30T16:48:06.036Z,2.80
2018-12-30T16:50:36.375Z,4.37
2018-12-30T16:53:07.082Z,3.70
2018-12-30T16:55:38.855Z,3.50
2018-12-30T16:58:10.291Z,3.35
2018-12-30T17:00:41.371Z,3.55
2018-12-30T17:03:13.745Z,3.45
2018-12-30T17:05:44.315Z,4.47
2018-12-30T17:08:15.189Z,3.52
2018-12-30T17:10:46.489Z,4.28
2018-12-30T17:13:22.551Z,2.98
2018-12-30T17:15:53.267Z,4.30
2018-12-30T17:18:23.565Z,3.87
2018-12-30T17:20:54.404Z,6.90
2018-12-30T17:23:25.074Z,5.62
2018-12-30T17:25:55.352Z,3.55
2018-12-30T17:28:25.881Z,4.58
2018-12-30T17:30:56.116Z,4.65
2018-12-30T17:33:26.354Z,3.77
2018-12-30T17:35:56.753Z,3.47
2018-12-30T17:38:27.496Z,3.25
2018-12-30T17:41:01.605Z,2.70
2018-12-30T17:43:30.420Z,2.98
2018-12-30T17:46:01.854Z,4.35
2018-12-30T17:48:32.793Z,3.25
2018-12-30T17:51:03.376Z,3.08
2018-12-30T17:53:34.335Z,3.30
2018-12-30T17:56:04.934Z,3.58
2018-12-30T17:58:35.446Z,2.65
2018-12-30T18:01:06.027Z,3.12
2018-12-30T18:03:36.240Z,3.87
2018-12-30T18:06:08.234Z,4.20
2018-12-30T18:08:39.063Z,3.75
2018-12-30T18:11:09.385Z,3.65
2018-12-30T18:13:40.222Z,4.08
2018-12-30T18:16:10.572Z,4.50
2018-12-30T18:18:40.902Z,4.00
2018-12-30T18:21:11.756Z,3.00
2018-12-30T18:23:42.265Z,2.85
2018-12-30T18:26:12.815Z,3.98
2018-12-30T18:28:44.377Z,2.90
2018-12-30T18:31:16.956Z,3.00
2018-12-30T18:33:47.460Z,2.92
2018-12-30T18:36:17.699Z,3.27
2018-12-30T18:38:47.961Z,3.92
2018-12-30T18:41:18.227Z,5.53
2018-12-30T18:43:49.335Z,7.33
2018-12-30T18:46:19.684Z,5.08
2018-12-30T18:48:49.987Z,4.60
2018-12-30T18:51:20.296Z,3.98
2018-12-30T18:53:50.642Z,3.80
2018-12-30T18:56:21.281Z,5.50
2018-12-30T18:58:51.956Z,4.37
2018-12-30T19:01:22.419Z,6.70
2018-12-30T19:03:52.989Z,4.00
2018-12-30T19:06:23.713Z,4.17
2018-12-30T19:08:54.575Z,5.47
2018-12-30T19:11:25.040Z,3.55
2018-12-30T19:13:55.545Z,4.85
2018-12-30T19:16:25.825Z,5.22
2018-12-30T19:18:56.277Z,5.90
2018-12-30T19:21:26.622Z,5.22
2018-12-30T19:23:56.897Z,7.08
2018-12-30T19:26:27.528Z,6.33
2018-12-30T19:28:57.882Z,6.65
2018-12-30T19:31:28.151Z,6.83
2018-12-30T19:33:58.649Z,6.97
2018-12-30T19:36:29.134Z,6.60
2018-12-30T19:38:59.447Z,6.35
2018-12-30T19:41:30.223Z,7.08
2018-12-30T19:44:00.795Z,7.17
2018-12-30T19:46:31.194Z,7.37
2018-12-30T19:49:01.580Z,8.00
2018-12-30T19:51:32.117Z,9.10
2018-12-30T19:54:02.558Z,9.98
2018-12-30T19:56:33.208Z,10.35
2018-12-30T19:59:03.967Z,10.20
2018-12-30T20:01:35.754Z,7.28
2018-12-30T20:04:06.107Z,6.70
2018-12-30T20:06:36.705Z,8.50
2018-12-30T20:09:08.964Z,7.80
2018-12-30T20:11:40.284Z,6.72
2018-12-30T20:14:10.613Z,8.00
2018-12-30T20:16:41.241Z,6.90
2018-12-30T20:19:11.925Z,7.92
2018-12-30T20:21:42.212Z,6.20
2018-12-30T20:24:12.624Z,6.72
2018-12-30T20:26:43.383Z,5.67
2018-12-30T20:29:13.817Z,6.10
2018-12-30T20:31:44.620Z,6.87
2018-12-30T20:34:15.785Z,5.62
2018-12-30T20:36:46.287Z,7.78
2018-12-30T20:39:16.788Z,6.90
2018-12-30T20:41:47.350Z,7.50
2018-12-30T20:44:17.664Z,8.08
2018-12-30T20:46:47.915Z,7.90
2018-12-30T20:49:18.338Z,7.47
2018-12-30T20:51:48.771Z,7.87
2018-12-30T20:54:19.502Z,7.80
2018-12-30T20:56:51.434Z,7.97
2018-12-30T20:59:21.869Z,6.97
2018-12-30T21:01:52.104Z,6.90
2018-12-30T21:04:22.846Z,8.60
2018-12-30T21:06:53.232Z,7.50
2018-12-30T21:09:23.606Z,8.00
2018-12-30T21:11:54.035Z,8.15
2018-12-30T21:14:24.304Z,8.43
2018-12-30T21:16:55.264Z,8.88
2018-12-30T21:19:25.796Z,8.68
2018-12-30T21:21:56.377Z,10.13
2018-12-30T21:24:27.125Z,12.75
2018-12-30T21:26:58.742Z,12.60
2018-12-30T21:29:29.320Z,13.72
2018-12-30T21:31:59.533Z,11.90
2018-12-30T21:34:30.208Z,9.83
2018-12-30T21:37:00.833Z,10.30
2018-12-30T21:39:31.388Z,7.40
2018-12-30T21:42:01.730Z,9.85
2018-12-30T21:44:33.513Z,9.43
2018-12-30T21:47:03.851Z,7.50
2018-12-30T21:49:36.061Z,7.58
2018-12-30T21:52:07.307Z,8.23
2018-12-30T21:54:37.630Z,9.25
2018-12-30T21:57:08.207Z,7.22
2018-12-30T21:59:39.000Z,8.40
2018-12-30T22:02:09.631Z,8.50
2018-12-30T22:04:40.476Z,8.30
2018-12-30T22:07:11.418Z,7.83
2018-12-30T22:09:42.035Z,8.38
2018-12-30T22:12:12.363Z,6.95
2018-12-30T22:14:42.984Z,7.92
2018-12-30T22:17:16.895Z,8.23
2018-12-30T22:19:46.422Z,7.15
2018-12-30T22:22:16.867Z,6.62
2018-12-30T22:24:47.092Z,7.22
2018-12-30T22:27:17.525Z,8.13
2018-12-30T22:29:47.797Z,10.70
2018-12-30T22:32:19.446Z,8.60
2018-12-30T22:34:49.919Z,7.00
2018-12-30T22:37:20.266Z,7.78
2018-12-30T22:39:51.390Z,8.85
2018-12-30T22:42:22.853Z,8.13
2018-12-30T22:44:53.668Z,9.20
2018-12-30T22:47:24.716Z,9.25
2018-12-30T22:49:55.350Z,7.92
2018-12-30T22:52:25.992Z,8.65
2018-12-30T22:54:56.421Z,8.08
2018-12-30T22:57:26.993Z,8.70
2018-12-30T22:59:57.569Z,10.45
2018-12-30T23:02:27.947Z,10.00
2018-12-30T23:04:59.020Z,8.23
2018-12-30T23:07:29.439Z,10.68
2018-12-30T23:09:59.718Z,8.45
2018-12-30T23:12:31.188Z,8.13
2018-12-30T23:15:02.279Z,8.05
2018-12-30T23:17:32.499Z,7.97
2018-12-30T23:20:03.023Z,8.13
2018-12-30T23:22:34.040Z,8.18
2018-12-30T23:25:04.495Z,7.95
2018-12-30T23:27:35.094Z,8.43
2018-12-30T23:30:05.993Z,8.00
2018-12-30T23:32:36.327Z,7.50
2018-12-30T23:35:06.770Z,7.67
2018-12-30T23:37:37.471Z,6.90
2018-12-30T23:40:08.349Z,7.80
2018-12-30T23:42:39.068Z,7.67
2018-12-30T23:45:09.789Z,7.70
2018-12-30T23:47:41.334Z,9.10
2018-12-30T23:50:11.841Z,9.20
2018-12-30T23:52:42.755Z,9.43
2018-12-30T23:55:13.824Z,9.23
2018-12-30T23:57:47.213Z,8.20
